Ursa — WDD3977 — position and weather

sailwx.info

Track history (hours):
 
Tides and Currents Weather Stations Pressure Air Temp Water Temp Dewpoint Dewpoint Depression Visibility Wind Speed Wind Dir Waves Ship Positions

Ursa

Owner: constellation maritime Company, Manchester, MA. More information available from US FCC via Universal Licensing System and Coast Guard Vessel Documentation Center.

Last reported at 2015-Apr-28 04:29 UTC. Time now 2015-Apr-28 05:15 UTC.
Position N 39°16' W 076°35'.

Length 29 m; draft 3 m.

Type: Towing. MMSI: 367138830.

Date/timePositionNaut miles runAvg speedWind from/ knotsBaromVisibWave heightAir tempDewpointWater temp
2015-Apr-28 04:29N 39°16' W 076°35'0 0.0
2015-Apr-28 02:27N 39°16' W 076°35'1 1.0
2015-Apr-28 01:34N 39°16' W 076°34'1 1.2
2015-Apr-28 00:32N 39°15' W 076°33'2 2.1
2015-Apr-27 23:33N 39°16' W 076°35'0 0.0
2015-Apr-27 22:21N 39°16' W 076°35'0 0.0
2015-Apr-27 21:33N 39°16' W 076°35'0 0.0
2015-Apr-27 20:32N 39°16' W 076°35'0 0.0
2015-Apr-27 19:32N 39°16' W 076°35'0 0.0
2015-Apr-27 18:08N 39°16' W 076°35'0 0.0
2015-Apr-27 17:22N 39°16' W 076°35'0 0.0
2015-Apr-27 16:16N 39°16' W 076°35'0 0.0
2015-Apr-27 15:18N 39°16' W 076°35'0 0.0
2015-Apr-27 14:33N 39°16' W 076°35'0 0.0
2015-Apr-27 13:33N 39°16' W 076°35'0 0.0
2015-Apr-27 12:33N 39°16' W 076°35'0 0.0
2015-Apr-27 11:25N 39°16' W 076°35'0 0.0
2015-Apr-27 10:22N 39°16' W 076°35'0 0.0
2015-Apr-27 09:33N 39°16' W 076°35'0 0.0
2015-Apr-27 08:32N 39°16' W 076°35'0 0.0
2015-Apr-27 07:33N 39°16' W 076°35'0 0.0
2015-Apr-27 06:33N 39°16' W 076°35'0 0.0
2015-Apr-27 05:32N 39°16' W 076°35'0 0.0
2015-Apr-27 04:32N 39°16' W 076°35'0 0.0
2015-Apr-27 03:33N 39°16' W 076°35'0 0.0
2015-Apr-27 02:30N 39°16' W 076°35'0 0.0
2015-Apr-27 01:31N 39°16' W 076°35'0 0.0
2015-Apr-27 00:32N 39°16' W 076°35'0 0.0
2015-Apr-26 23:32N 39°16' W 076°35'0 0.0
2015-Apr-26 22:23N 39°16' W 076°35'0 0.0
2015-Apr-26 21:32N 39°16' W 076°35'0 0.0
2015-Apr-26 20:25N 39°16' W 076°35'0 0.0
2015-Apr-26 19:32N 39°16' W 076°35'0 0.0
2015-Apr-26 18:25N 39°16' W 076°35'0 0.0
2015-Apr-26 17:29N 39°16' W 076°35'0 0.0
2015-Apr-26 16:20N 39°16' W 076°35'0 0.0
2015-Apr-26 15:31N 39°16' W 076°35'0 0.0
2015-Apr-26 14:32N 39°16' W 076°35'0 0.0
2015-Apr-26 13:22N 39°16' W 076°35'0 0.0
2015-Apr-26 12:34N 39°16' W 076°35'0 0.0
2015-Apr-26 11:33N 39°16' W 076°35'0 0.0
2015-Apr-26 10:27N 39°16' W 076°35'0 0.0
2015-Apr-26 09:29N 39°16' W 076°35'0 0.0
2015-Apr-26 08:31N 39°16' W 076°35'0 0.0
2015-Apr-26 07:29N 39°16' W 076°35'0 0.0
2015-Apr-26 06:24N 39°16' W 076°35'0 0.0
2015-Apr-26 05:27N 39°16' W 076°35'0 0.0
2015-Apr-26 04:29N 39°16' W 076°35'0 0.0
2015-Apr-26 03:33N 39°16' W 076°35'0 0.0
2015-Apr-26 02:05N 39°16' W 076°35'0 0.0
2015-Apr-26 01:13N 39°16' W 076°35'0 0.4
2015-Apr-26 00:26N 39°16' W 076°35'3 1.5
2015-Apr-25 22:33N 39°14' W 076°33'3 3.1
2015-Apr-25 21:32N 39°16' W 076°35'0 0.0
2015-Apr-25 19:32N 39°16' W 076°35'0 0.0
2015-Apr-25 18:09N 39°16' W 076°35'0 0.0
2015-Apr-25 17:25N 39°16' W 076°35'0 0.0
2015-Apr-25 16:31N 39°16' W 076°35'0 0.0
2015-Apr-25 15:25N 39°16' W 076°35'0 0.0
2015-Apr-25 14:28N 39°16' W 076°35'0 0.0
2015-Apr-25 13:33N 39°16' W 076°35'0 0.0
2015-Apr-25 12:33N 39°16' W 076°35'0 0.0
2015-Apr-25 11:25N 39°16' W 076°35'0 0.0
2015-Apr-25 10:33N 39°16' W 076°35'0 0.0
2015-Apr-25 09:32N 39°16' W 076°35'0 0.0
2015-Apr-25 08:32N 39°16' W 076°35'0 0.0
2015-Apr-25 07:33N 39°16' W 076°35'0 0.0
2015-Apr-25 06:34N 39°16' W 076°35'0 0.0
2015-Apr-25 05:33N 39°16' W 076°35'0 0.4
2015-Apr-25 04:28N 39°16' W 076°34'1 0.6
2015-Apr-25 03:33N 39°16' W 076°34'3 2.0
2015-Apr-25 02:08N 39°13' W 076°35'2 2.7
2015-Apr-25 01:33N 39°14' W 076°33'3 2.7
2015-Apr-25 00:33N 39°16' W 076°35'0 0.3
2015-Apr-24 23:28N 39°16' W 076°35'0 0.0
2015-Apr-24 22:32N 39°16' W 076°35'0 0.0
2015-Apr-24 21:33N 39°16' W 076°35'0 0.0
2015-Apr-24 20:33N 39°16' W 076°35'0 0.0
2015-Apr-24 19:33N 39°16' W 076°35'0 0.0
2015-Apr-24 18:31N 39°16' W 076°35'0 0.0
2015-Apr-24 17:31N 39°16' W 076°35'0 0.0
2015-Apr-24 16:33N 39°16' W 076°35'0 0.0
2015-Apr-24 15:33N 39°16' W 076°35'0 0.0
2015-Apr-24 14:33N 39°16' W 076°35'0 0.0
2015-Apr-24 13:33N 39°16' W 076°35'0 0.0
2015-Apr-24 12:33N 39°16' W 076°35'0 0.0
2015-Apr-24 11:30N 39°16' W 076°35'0 0.0
2015-Apr-24 10:33N 39°16' W 076°35'0 0.0
2015-Apr-24 09:32N 39°16' W 076°35'0 0.0
2015-Apr-24 08:32N 39°16' W 076°35'0 0.0
2015-Apr-24 07:32N 39°16' W 076°35'0 0.0
2015-Apr-24 06:33N 39°16' W 076°35'2 2.3
2015-Apr-24 05:32N 39°14' W 076°33'4 3.4
2015-Apr-24 04:26N 39°13' W 076°29'1 0.9
2015-Apr-24 03:09N 39°12' W 076°29'3 4.4
2015-Apr-24 02:31N 39°13' W 076°32'4 4.3
2015-Apr-24 01:33N 39°16' W 076°35'0 0.0
2015-Apr-24 00:32N 39°16' W 076°35'0 0.0
2015-Apr-23 23:32N 39°16' W 076°35'0 0.0
2015-Apr-23 22:30N 39°16' W 076°35'0 0.2
2015-Apr-23 21:33N 39°16' W 076°35'0 0.1
2015-Apr-23 20:33N 39°16' W 076°35'0 0.0
2015-Apr-23 19:33N 39°16' W 076°35'0 0.0
2015-Apr-23 18:33N 39°16' W 076°35'0 0.0
2015-Apr-23 17:30N 39°16' W 076°35'0 0.0
2015-Apr-23 16:33N 39°16' W 076°35'0 0.0
2015-Apr-23 15:33N 39°16' W 076°35'0 0.0
2015-Apr-23 14:33N 39°16' W 076°35'0 0.0
2015-Apr-23 13:33N 39°16' W 076°35'0 0.0
2015-Apr-23 12:33N 39°16' W 076°35'0 0.0
2015-Apr-23 11:33N 39°16' W 076°35'0 0.0
2015-Apr-23 10:33N 39°16' W 076°35'0 0.0
2015-Apr-23 09:33N 39°16' W 076°35'0 0.0
2015-Apr-23 08:33N 39°16' W 076°35'0 0.0
2015-Apr-23 07:33N 39°16' W 076°35'0 0.0
2015-Apr-23 06:33N 39°16' W 076°35'0 0.0
2015-Apr-23 05:33N 39°16' W 076°35'0 0.0
2015-Apr-23 04:33N 39°16' W 076°35'0 0.0
2015-Apr-23 03:33N 39°16' W 076°35'0 0.0
2015-Apr-23 02:32N 39°16' W 076°35'0 0.0
2015-Apr-23 01:33N 39°16' W 076°35'0 0.0
2015-Apr-23 00:33N 39°16' W 076°35'0 0.0
2015-Apr-22 23:32N 39°16' W 076°35'0 0.0
2015-Apr-22 22:33N 39°16' W 076°35'0 0.0
2015-Apr-22 21:33N 39°16' W 076°35'0 0.0
2015-Apr-22 20:33N 39°16' W 076°35'0 0.0
2015-Apr-22 19:33N 39°16' W 076°35'0 0.0
2015-Apr-22 18:33N 39°16' W 076°35'0 0.0
2015-Apr-22 17:33N 39°16' W 076°35'0 0.0
2015-Apr-22 16:33N 39°16' W 076°35'0 0.0
2015-Apr-22 15:33N 39°16' W 076°35'0 0.0
2015-Apr-22 14:33N 39°16' W 076°35'0 0.0
2015-Apr-22 13:33N 39°16' W 076°35'0 0.0
2015-Apr-22 12:33N 39°16' W 076°35'0 0.0
2015-Apr-22 11:33N 39°16' W 076°35'0 0.0
2015-Apr-22 10:33N 39°16' W 076°35'0 0.0
2015-Apr-22 09:33N 39°16' W 076°35'0 0.0
2015-Apr-22 08:33N 39°16' W 076°35'0 0.0
2015-Apr-22 07:33N 39°16' W 076°35'0 0.0
2015-Apr-22 06:33N 39°16' W 076°35'0 0.0
2015-Apr-22 05:33N 39°16' W 076°35'0 0.0
2015-Apr-22 04:34N 39°16' W 076°35'0 0.0
2015-Apr-22 03:33N 39°16' W 076°35'0 0.0
2015-Apr-22 02:32N 39°16' W 076°35'0 0.0
2015-Apr-22 01:32N 39°16' W 076°35'0 0.0
2015-Apr-22 00:32N 39°16' W 076°35'0 0.0
2015-Apr-21 23:33N 39°16' W 076°35'0 0.0
2015-Apr-21 22:33N 39°16' W 076°35'0 0.0
2015-Apr-21 21:32N 39°16' W 076°35'0 0.0
2015-Apr-21 20:33N 39°16' W 076°35'0 0.0
2015-Apr-21 19:31N 39°16' W 076°35'0 0.0
2015-Apr-21 18:33N 39°16' W 076°35'0 0.0
2015-Apr-21 17:33N 39°16' W 076°35'0 0.0
2015-Apr-21 16:33N 39°16' W 076°35'0 0.0
2015-Apr-21 15:31N 39°16' W 076°35'0 0.0
2015-Apr-21 14:33N 39°16' W 076°35'0 0.0
2015-Apr-21 13:33N 39°16' W 076°35'0 0.0
2015-Apr-21 12:33N 39°16' W 076°35'0 0.0
2015-Apr-21 11:33N 39°16' W 076°35'0 0.0
2015-Apr-21 10:33N 39°16' W 076°35'0 0.0
2015-Apr-21 09:33N 39°16' W 076°35'0 0.0
2015-Apr-21 08:33N 39°16' W 076°35'0 0.0
2015-Apr-21 07:33N 39°16' W 076°35'0 0.0
2015-Apr-21 06:33N 39°16' W 076°35'0 0.0
2015-Apr-21 05:11N 39°16' W 076°35'0 0.0
2015-Apr-21 04:33N 39°16' W 076°35'0 0.0
2015-Apr-21 03:33N 39°16' W 076°35'0 0.0
2015-Apr-21 02:33N 39°16' W 076°35'0 0.0
2015-Apr-21 01:33N 39°16' W 076°35'0 0.0
2015-Apr-21 00:28N 39°16' W 076°35'0 0.0
2015-Apr-20 23:33N 39°16' W 076°35'0 0.0
2015-Apr-20 22:33N 39°16' W 076°35'0 0.0
2015-Apr-20 21:33N 39°16' W 076°35'0 0.0
2015-Apr-20 20:33N 39°16' W 076°35'0 0.0
2015-Apr-20 19:33N 39°16' W 076°35'0 0.0
2015-Apr-20 18:33N 39°16' W 076°35'0 0.0
2015-Apr-20 17:33N 39°16' W 076°35'0 0.0
2015-Apr-20 16:33N 39°16' W 076°35'0 0.0
2015-Apr-20 15:33N 39°16' W 076°35'0 0.0
2015-Apr-20 14:33N 39°16' W 076°35'0 0.0
2015-Apr-20 13:33N 39°16' W 076°35'0 0.0
2015-Apr-20 12:33N 39°16' W 076°35'0 0.0
2015-Apr-20 11:33N 39°16' W 076°35'0 0.0
2015-Apr-20 10:33N 39°16' W 076°35'0 0.0
2015-Apr-20 09:31N 39°16' W 076°35'0 0.0
2015-Apr-20 08:21N 39°16' W 076°35'0 0.0
2015-Apr-20 07:33N 39°16' W 076°35'0 0.0
2015-Apr-20 06:30N 39°16' W 076°35'0 0.0
2015-Apr-20 05:33N 39°16' W 076°35'0 0.0
2015-Apr-20 04:29N 39°16' W 076°35'0 0.0
2015-Apr-20 03:30N 39°16' W 076°35'1 1.0
2015-Apr-20 02:32N 39°16' W 076°34'1 1.0
2015-Apr-20 01:33N 39°16' W 076°35'0 0.0
2015-Apr-20 00:32N 39°16' W 076°35'0 0.0
2015-Apr-19 23:32N 39°16' W 076°35'0 0.0
2015-Apr-19 22:33N 39°16' W 076°35'0 0.0
2015-Apr-19 21:33N 39°16' W 076°35'0 0.0
2015-Apr-19 20:33N 39°16' W 076°35'0 0.0
2015-Apr-19 19:33N 39°16' W 076°35'0 0.0
2015-Apr-19 18:33N 39°16' W 076°35'1 0.6
2015-Apr-19 17:34N 39°17' W 076°36'3 3.5
2015-Apr-19 16:33N 39°14' W 076°33'0 0.0
2015-Apr-19 15:33N 39°14' W 076°33'3 2.9
2015-Apr-19 14:32N 39°16' W 076°35'0 0.0
2015-Apr-19 13:33N 39°16' W 076°35'0 0.0
2015-Apr-19 12:33N 39°16' W 076°35'0 0.0
2015-Apr-19 11:33N 39°16' W 076°35'0 0.0
2015-Apr-19 10:33N 39°16' W 076°35'0 0.0
2015-Apr-19 09:33N 39°16' W 076°35'0 0.0
2015-Apr-19 08:33N 39°16' W 076°35'0 0.0
2015-Apr-19 07:33N 39°16' W 076°35'0 0.0
2015-Apr-19 06:34N 39°16' W 076°35'0 0.0
2015-Apr-19 05:33N 39°16' W 076°35'0 0.0
2015-Apr-19 04:33N 39°16' W 076°35'0 0.1
2015-Apr-19 03:34N 39°16' W 076°35'0 0.1
2015-Apr-19 02:34N 39°16' W 076°35'0 0.0
2015-Apr-19 01:32N 39°16' W 076°35'0 0.0
2015-Apr-19 00:33N 39°16' W 076°35'0 0.0
2015-Apr-18 23:33N 39°16' W 076°35'0 0.0
2015-Apr-18 22:33N 39°16' W 076°35'0 0.0
2015-Apr-18 21:33N 39°16' W 076°35'0 0.0
2015-Apr-18 20:33N 39°16' W 076°35'0 0.0
2015-Apr-18 19:33N 39°16' W 076°35'0 0.0
2015-Apr-18 18:33N 39°16' W 076°35'0 0.0
2015-Apr-18 17:33N 39°16' W 076°35'0 0.0
2015-Apr-18 16:32N 39°16' W 076°35'0 0.0
2015-Apr-18 15:33N 39°16' W 076°35'0 0.0
2015-Apr-18 14:33N 39°16' W 076°35'0 0.0
2015-Apr-18 13:33N 39°16' W 076°35'0 0.0
2015-Apr-18 12:33N 39°16' W 076°35'0 0.0
2015-Apr-18 11:33N 39°16' W 076°35'0 0.0
2015-Apr-18 10:33N 39°16' W 076°35'0 0.0
2015-Apr-18 09:33N 39°16' W 076°35'0 0.0
2015-Apr-18 08:33N 39°16' W 076°35'1 0.9
2015-Apr-18 07:33N 39°16' W 076°34'0 0.1
2015-Apr-18 06:33N 39°16' W 076°34'1 1.0
2015-Apr-18 05:34N 39°16' W 076°35'0 0.0
2015-Apr-18 04:33N 39°16' W 076°35'  
Track history (hours):
 
Tides and Currents Weather Stations Pressure Air Temp Water Temp Dewpoint Dewpoint Depression Visibility Wind Speed Wind Dir Waves Ship Positions

Ursa

Owner: constellation maritime Company, Manchester, MA. More information available from US FCC via Universal Licensing System and Coast Guard Vessel Documentation Center.

Last reported at 2015-Apr-28 04:29 UTC. Time now 2015-Apr-28 05:15 UTC.
Position N 39°16' W 076°35'.

Length 29 m; draft 3 m.

Type: Towing. MMSI: 367138830.

Date/timePositionNaut miles runAvg speedWind from/ knotsBaromVisibWave heightAir tempDewpointWater temp
2015-Apr-28 04:29N 39°16' W 076°35'0 0.0
2015-Apr-28 02:27N 39°16' W 076°35'1 1.0
2015-Apr-28 01:34N 39°16' W 076°34'1 1.2
2015-Apr-28 00:32N 39°15' W 076°33'2 2.1
2015-Apr-27 23:33N 39°16' W 076°35'0 0.0
2015-Apr-27 22:21N 39°16' W 076°35'0 0.0
2015-Apr-27 21:33N 39°16' W 076°35'0 0.0
2015-Apr-27 20:32N 39°16' W 076°35'0 0.0
2015-Apr-27 19:32N 39°16' W 076°35'0 0.0
2015-Apr-27 18:08N 39°16' W 076°35'0 0.0
2015-Apr-27 17:22N 39°16' W 076°35'0 0.0
2015-Apr-27 16:16N 39°16' W 076°35'0 0.0
2015-Apr-27 15:18N 39°16' W 076°35'0 0.0
2015-Apr-27 14:33N 39°16' W 076°35'0 0.0
2015-Apr-27 13:33N 39°16' W 076°35'0 0.0
2015-Apr-27 12:33N 39°16' W 076°35'0 0.0
2015-Apr-27 11:25N 39°16' W 076°35'0 0.0
2015-Apr-27 10:22N 39°16' W 076°35'0 0.0
2015-Apr-27 09:33N 39°16' W 076°35'0 0.0
2015-Apr-27 08:32N 39°16' W 076°35'0 0.0
2015-Apr-27 07:33N 39°16' W 076°35'0 0.0
2015-Apr-27 06:33N 39°16' W 076°35'0 0.0
2015-Apr-27 05:32N 39°16' W 076°35'0 0.0
2015-Apr-27 04:32N 39°16' W 076°35'0 0.0
2015-Apr-27 03:33N 39°16' W 076°35'0 0.0
2015-Apr-27 02:30N 39°16' W 076°35'0 0.0
2015-Apr-27 01:31N 39°16' W 076°35'0 0.0
2015-Apr-27 00:32N 39°16' W 076°35'0 0.0
2015-Apr-26 23:32N 39°16' W 076°35'0 0.0
2015-Apr-26 22:23N 39°16' W 076°35'0 0.0
2015-Apr-26 21:32N 39°16' W 076°35'0 0.0
2015-Apr-26 20:25N 39°16' W 076°35'0 0.0
2015-Apr-26 19:32N 39°16' W 076°35'0 0.0
2015-Apr-26 18:25N 39°16' W 076°35'0 0.0
2015-Apr-26 17:29N 39°16' W 076°35'0 0.0
2015-Apr-26 16:20N 39°16' W 076°35'0 0.0
2015-Apr-26 15:31N 39°16' W 076°35'0 0.0
2015-Apr-26 14:32N 39°16' W 076°35'0 0.0
2015-Apr-26 13:22N 39°16' W 076°35'0 0.0
2015-Apr-26 12:34N 39°16' W 076°35'0 0.0
2015-Apr-26 11:33N 39°16' W 076°35'0 0.0
2015-Apr-26 10:27N 39°16' W 076°35'0 0.0
2015-Apr-26 09:29N 39°16' W 076°35'0 0.0
2015-Apr-26 08:31N 39°16' W 076°35'0 0.0
2015-Apr-26 07:29N 39°16' W 076°35'0 0.0
2015-Apr-26 06:24N 39°16' W 076°35'0 0.0
2015-Apr-26 05:27N 39°16' W 076°35'0 0.0
2015-Apr-26 04:29N 39°16' W 076°35'0 0.0
2015-Apr-26 03:33N 39°16' W 076°35'0 0.0
2015-Apr-26 02:05N 39°16' W 076°35'0 0.0
2015-Apr-26 01:13N 39°16' W 076°35'0 0.4
2015-Apr-26 00:26N 39°16' W 076°35'3 1.5
2015-Apr-25 22:33N 39°14' W 076°33'3 3.1
2015-Apr-25 21:32N 39°16' W 076°35'0 0.0
2015-Apr-25 19:32N 39°16' W 076°35'0 0.0
2015-Apr-25 18:09N 39°16' W 076°35'0 0.0
2015-Apr-25 17:25N 39°16' W 076°35'0 0.0
2015-Apr-25 16:31N 39°16' W 076°35'0 0.0
2015-Apr-25 15:25N 39°16' W 076°35'0 0.0
2015-Apr-25 14:28N 39°16' W 076°35'0 0.0
2015-Apr-25 13:33N 39°16' W 076°35'0 0.0
2015-Apr-25 12:33N 39°16' W 076°35'0 0.0
2015-Apr-25 11:25N 39°16' W 076°35'0 0.0
2015-Apr-25 10:33N 39°16' W 076°35'0 0.0
2015-Apr-25 09:32N 39°16' W 076°35'0 0.0
2015-Apr-25 08:32N 39°16' W 076°35'0 0.0
2015-Apr-25 07:33N 39°16' W 076°35'0 0.0
2015-Apr-25 06:34N 39°16' W 076°35'0 0.0
2015-Apr-25 05:33N 39°16' W 076°35'0 0.4
2015-Apr-25 04:28N 39°16' W 076°34'1 0.6
2015-Apr-25 03:33N 39°16' W 076°34'3 2.0
2015-Apr-25 02:08N 39°13' W 076°35'2 2.7
2015-Apr-25 01:33N 39°14' W 076°33'3 2.7
2015-Apr-25 00:33N 39°16' W 076°35'0 0.3
2015-Apr-24 23:28N 39°16' W 076°35'0 0.0
2015-Apr-24 22:32N 39°16' W 076°35'0 0.0
2015-Apr-24 21:33N 39°16' W 076°35'0 0.0
2015-Apr-24 20:33N 39°16' W 076°35'0 0.0
2015-Apr-24 19:33N 39°16' W 076°35'0 0.0
2015-Apr-24 18:31N 39°16' W 076°35'0 0.0
2015-Apr-24 17:31N 39°16' W 076°35'0 0.0
2015-Apr-24 16:33N 39°16' W 076°35'0 0.0
2015-Apr-24 15:33N 39°16' W 076°35'0 0.0
2015-Apr-24 14:33N 39°16' W 076°35'0 0.0
2015-Apr-24 13:33N 39°16' W 076°35'0 0.0
2015-Apr-24 12:33N 39°16' W 076°35'0 0.0
2015-Apr-24 11:30N 39°16' W 076°35'0 0.0
2015-Apr-24 10:33N 39°16' W 076°35'0 0.0
2015-Apr-24 09:32N 39°16' W 076°35'0 0.0
2015-Apr-24 08:32N 39°16' W 076°35'0 0.0
2015-Apr-24 07:32N 39°16' W 076°35'0 0.0
2015-Apr-24 06:33N 39°16' W 076°35'2 2.3
2015-Apr-24 05:32N 39°14' W 076°33'4 3.4
2015-Apr-24 04:26N 39°13' W 076°29'1 0.9
2015-Apr-24 03:09N 39°12' W 076°29'3 4.4
2015-Apr-24 02:31N 39°13' W 076°32'4 4.3
2015-Apr-24 01:33N 39°16' W 076°35'0 0.0
2015-Apr-24 00:32N 39°16' W 076°35'0 0.0
2015-Apr-23 23:32N 39°16' W 076°35'0 0.0
2015-Apr-23 22:30N 39°16' W 076°35'0 0.2
2015-Apr-23 21:33N 39°16' W 076°35'0 0.1
2015-Apr-23 20:33N 39°16' W 076°35'0 0.0
2015-Apr-23 19:33N 39°16' W 076°35'0 0.0
2015-Apr-23 18:33N 39°16' W 076°35'0 0.0
2015-Apr-23 17:30N 39°16' W 076°35'0 0.0
2015-Apr-23 16:33N 39°16' W 076°35'0 0.0
2015-Apr-23 15:33N 39°16' W 076°35'0 0.0
2015-Apr-23 14:33N 39°16' W 076°35'0 0.0
2015-Apr-23 13:33N 39°16' W 076°35'0 0.0
2015-Apr-23 12:33N 39°16' W 076°35'0 0.0
2015-Apr-23 11:33N 39°16' W 076°35'0 0.0
2015-Apr-23 10:33N 39°16' W 076°35'0 0.0
2015-Apr-23 09:33N 39°16' W 076°35'0 0.0
2015-Apr-23 08:33N 39°16' W 076°35'0 0.0
2015-Apr-23 07:33N 39°16' W 076°35'0 0.0
2015-Apr-23 06:33N 39°16' W 076°35'0 0.0
2015-Apr-23 05:33N 39°16' W 076°35'0 0.0
2015-Apr-23 04:33N 39°16' W 076°35'0 0.0
2015-Apr-23 03:33N 39°16' W 076°35'0 0.0
2015-Apr-23 02:32N 39°16' W 076°35'0 0.0
2015-Apr-23 01:33N 39°16' W 076°35'0 0.0
2015-Apr-23 00:33N 39°16' W 076°35'0 0.0
2015-Apr-22 23:32N 39°16' W 076°35'0 0.0
2015-Apr-22 22:33N 39°16' W 076°35'0 0.0
2015-Apr-22 21:33N 39°16' W 076°35'0 0.0
2015-Apr-22 20:33N 39°16' W 076°35'0 0.0
2015-Apr-22 19:33N 39°16' W 076°35'0 0.0
2015-Apr-22 18:33N 39°16' W 076°35'0 0.0
2015-Apr-22 17:33N 39°16' W 076°35'0 0.0
2015-Apr-22 16:33N 39°16' W 076°35'0 0.0
2015-Apr-22 15:33N 39°16' W 076°35'0 0.0
2015-Apr-22 14:33N 39°16' W 076°35'0 0.0
2015-Apr-22 13:33N 39°16' W 076°35'0 0.0
2015-Apr-22 12:33N 39°16' W 076°35'0 0.0
2015-Apr-22 11:33N 39°16' W 076°35'0 0.0
2015-Apr-22 10:33N 39°16' W 076°35'0 0.0
2015-Apr-22 09:33N 39°16' W 076°35'0 0.0
2015-Apr-22 08:33N 39°16' W 076°35'0 0.0
2015-Apr-22 07:33N 39°16' W 076°35'0 0.0
2015-Apr-22 06:33N 39°16' W 076°35'0 0.0
2015-Apr-22 05:33N 39°16' W 076°35'0 0.0
2015-Apr-22 04:34N 39°16' W 076°35'0 0.0
2015-Apr-22 03:33N 39°16' W 076°35'0 0.0
2015-Apr-22 02:32N 39°16' W 076°35'0 0.0
2015-Apr-22 01:32N 39°16' W 076°35'0 0.0
2015-Apr-22 00:32N 39°16' W 076°35'0 0.0
2015-Apr-21 23:33N 39°16' W 076°35'0 0.0
2015-Apr-21 22:33N 39°16' W 076°35'0 0.0
2015-Apr-21 21:32N 39°16' W 076°35'0 0.0
2015-Apr-21 20:33N 39°16' W 076°35'0 0.0
2015-Apr-21 19:31N 39°16' W 076°35'0 0.0
2015-Apr-21 18:33N 39°16' W 076°35'0 0.0
2015-Apr-21 17:33N 39°16' W 076°35'0 0.0
2015-Apr-21 16:33N 39°16' W 076°35'0 0.0
2015-Apr-21 15:31N 39°16' W 076°35'0 0.0
2015-Apr-21 14:33N 39°16' W 076°35'0 0.0
2015-Apr-21 13:33N 39°16' W 076°35'0 0.0
2015-Apr-21 12:33N 39°16' W 076°35'0 0.0
2015-Apr-21 11:33N 39°16' W 076°35'0 0.0
2015-Apr-21 10:33N 39°16' W 076°35'0 0.0
2015-Apr-21 09:33N 39°16' W 076°35'0 0.0
2015-Apr-21 08:33N 39°16' W 076°35'0 0.0
2015-Apr-21 07:33N 39°16' W 076°35'0 0.0
2015-Apr-21 06:33N 39°16' W 076°35'0 0.0
2015-Apr-21 05:11N 39°16' W 076°35'0 0.0
2015-Apr-21 04:33N 39°16' W 076°35'0 0.0
2015-Apr-21 03:33N 39°16' W 076°35'0 0.0
2015-Apr-21 02:33N 39°16' W 076°35'0 0.0
2015-Apr-21 01:33N 39°16' W 076°35'0 0.0
2015-Apr-21 00:28N 39°16' W 076°35'0 0.0
2015-Apr-20 23:33N 39°16' W 076°35'0 0.0
2015-Apr-20 22:33N 39°16' W 076°35'0 0.0
2015-Apr-20 21:33N 39°16' W 076°35'0 0.0
2015-Apr-20 20:33N 39°16' W 076°35'0 0.0
2015-Apr-20 19:33N 39°16' W 076°35'0 0.0
2015-Apr-20 18:33N 39°16' W 076°35'0 0.0
2015-Apr-20 17:33N 39°16' W 076°35'0 0.0
2015-Apr-20 16:33N 39°16' W 076°35'0 0.0
2015-Apr-20 15:33N 39°16' W 076°35'0 0.0
2015-Apr-20 14:33N 39°16' W 076°35'0 0.0
2015-Apr-20 13:33N 39°16' W 076°35'0 0.0
2015-Apr-20 12:33N 39°16' W 076°35'0 0.0
2015-Apr-20 11:33N 39°16' W 076°35'0 0.0
2015-Apr-20 10:33N 39°16' W 076°35'0 0.0
2015-Apr-20 09:31N 39°16' W 076°35'0 0.0
2015-Apr-20 08:21N 39°16' W 076°35'0 0.0
2015-Apr-20 07:33N 39°16' W 076°35'0 0.0
2015-Apr-20 06:30N 39°16' W 076°35'0 0.0
2015-Apr-20 05:33N 39°16' W 076°35'0 0.0
2015-Apr-20 04:29N 39°16' W 076°35'0 0.0
2015-Apr-20 03:30N 39°16' W 076°35'1 1.0
2015-Apr-20 02:32N 39°16' W 076°34'1 1.0
2015-Apr-20 01:33N 39°16' W 076°35'0 0.0
2015-Apr-20 00:32N 39°16' W 076°35'0 0.0
2015-Apr-19 23:32N 39°16' W 076°35'0 0.0
2015-Apr-19 22:33N 39°16' W 076°35'0 0.0
2015-Apr-19 21:33N 39°16' W 076°35'0 0.0
2015-Apr-19 20:33N 39°16' W 076°35'0 0.0
2015-Apr-19 19:33N 39°16' W 076°35'0 0.0
2015-Apr-19 18:33N 39°16' W 076°35'1 0.6
2015-Apr-19 17:34N 39°17' W 076°36'3 3.5
2015-Apr-19 16:33N 39°14' W 076°33'0 0.0
2015-Apr-19 15:33N 39°14' W 076°33'3 2.9
2015-Apr-19 14:32N 39°16' W 076°35'0 0.0
2015-Apr-19 13:33N 39°16' W 076°35'0 0.0
2015-Apr-19 12:33N 39°16' W 076°35'0 0.0
2015-Apr-19 11:33N 39°16' W 076°35'0 0.0
2015-Apr-19 10:33N 39°16' W 076°35'0 0.0
2015-Apr-19 09:33N 39°16' W 076°35'0 0.0
2015-Apr-19 08:33N 39°16' W 076°35'0 0.0
2015-Apr-19 07:33N 39°16' W 076°35'0 0.0
2015-Apr-19 06:34N 39°16' W 076°35'0 0.0
2015-Apr-19 05:33N 39°16' W 076°35'0 0.0
2015-Apr-19 04:33N 39°16' W 076°35'0 0.1
2015-Apr-19 03:34N 39°16' W 076°35'0 0.1
2015-Apr-19 02:34N 39°16' W 076°35'0 0.0
2015-Apr-19 01:32N 39°16' W 076°35'0 0.0
2015-Apr-19 00:33N 39°16' W 076°35'0 0.0
2015-Apr-18 23:33N 39°16' W 076°35'0 0.0
2015-Apr-18 22:33N 39°16' W 076°35'0 0.0
2015-Apr-18 21:33N 39°16' W 076°35'0 0.0
2015-Apr-18 20:33N 39°16' W 076°35'0 0.0
2015-Apr-18 19:33N 39°16' W 076°35'0 0.0
2015-Apr-18 18:33N 39°16' W 076°35'0 0.0
2015-Apr-18 17:33N 39°16' W 076°35'0 0.0
2015-Apr-18 16:32N 39°16' W 076°35'0 0.0
2015-Apr-18 15:33N 39°16' W 076°35'0 0.0
2015-Apr-18 14:33N 39°16' W 076°35'0 0.0
2015-Apr-18 13:33N 39°16' W 076°35'0 0.0
2015-Apr-18 12:33N 39°16' W 076°35'0 0.0
2015-Apr-18 11:33N 39°16' W 076°35'0 0.0
2015-Apr-18 10:33N 39°16' W 076°35'0 0.0
2015-Apr-18 09:33N 39°16' W 076°35'0 0.0
2015-Apr-18 08:33N 39°16' W 076°35'1 0.9
2015-Apr-18 07:33N 39°16' W 076°34'0 0.1
2015-Apr-18 06:33N 39°16' W 076°34'1 1.0
2015-Apr-18 05:34N 39°16' W 076°35'0 0.0
2015-Apr-18 04:33N 39°16' W 076°35'  

Dump ship's entire track history